createdAt,value
2019-05-10T00:00:21.059Z,1010.39
2019-05-10T00:00:51.012Z,1010.36
2019-05-10T00:01:21.064Z,1010.38
2019-05-10T00:02:21.066Z,1010.33
2019-05-10T00:02:52.182Z,1010.34
2019-05-10T00:03:21.056Z,1010.32
2019-05-10T00:03:55.131Z,1010.35
2019-05-10T00:04:51.026Z,1010.34
2019-05-10T00:05:21.060Z,1010.32
2019-05-10T00:05:51.073Z,1010.33
2019-05-10T00:06:21.062Z,1010.33
2019-05-10T00:06:51.008Z,1010.31
2019-05-10T00:07:54.118Z,1010.27
2019-05-10T00:08:21.066Z,1010.30
2019-05-10T00:08:51.009Z,1010.32
2019-05-10T00:09:21.065Z,1010.31
2019-05-10T00:10:21.064Z,1010.27
2019-05-10T00:10:50.998Z,1010.28
2019-05-10T00:11:21.084Z,1010.27
2019-05-10T00:11:50.997Z,1010.28
2019-05-10T00:12:50.998Z,1010.27
2019-05-10T00:13:22.150Z,1010.30
2019-05-10T00:13:51.000Z,1010.28
2019-05-10T00:14:25.082Z,1010.29
2019-05-10T00:15:21.060Z,1010.29
2019-05-10T00:15:51.020Z,1010.30
2019-05-10T00:16:21.100Z,1010.26
2019-05-10T00:16:51.004Z,1010.27
2019-05-10T00:17:51.006Z,1010.33
2019-05-10T00:18:24.180Z,1010.28
2019-05-10T00:18:51.014Z,1010.27
2019-05-10T00:19:21.067Z,1010.26
2019-05-10T00:20:21.121Z,1010.28
2019-05-10T00:20:51.009Z,1010.27
2019-05-10T00:21:21.100Z,1010.26
2019-05-10T00:21:51.008Z,1010.29
2019-05-10T00:22:51.004Z,1010.24
2019-05-10T00:23:21.067Z,1010.21
2019-05-10T00:23:52.150Z,1010.23
2019-05-10T00:24:21.072Z,1010.20
2019-05-10T00:25:04.639Z,1010.23
2019-05-10T00:25:53.012Z,1010.21
2019-05-10T00:26:21.072Z,1010.23
2019-05-10T00:26:51.011Z,1010.21
2019-05-10T00:27:51.012Z,1010.24
2019-05-10T00:28:21.072Z,1010.22
2019-05-10T00:28:54.185Z,1010.21
2019-05-10T00:29:21.080Z,1010.22
2019-05-10T00:30:21.064Z,1010.20
2019-05-10T00:30:51.006Z,1010.19
2019-05-10T00:31:21.069Z,1010.24
2019-05-10T00:31:51.040Z,1010.22
2019-05-10T00:32:51.010Z,1010.24
2019-05-10T00:33:21.092Z,1010.22
2019-05-10T00:33:51.014Z,1010.23
2019-05-10T00:34:22.251Z,1010.25
2019-05-10T00:35:25.090Z,1010.27
2019-05-10T00:35:51.016Z,1010.25
2019-05-10T00:36:21.071Z,1010.24
2019-05-10T00:36:51.008Z,1010.24
2019-05-10T00:37:51.014Z,1010.23
2019-05-10T00:38:21.086Z,1010.19
2019-05-10T00:38:51.040Z,1010.20
2019-05-10T00:39:24.117Z,1010.25
2019-05-10T00:40:21.091Z,1010.21
2019-05-10T00:40:51.007Z,1010.24
2019-05-10T00:41:21.069Z,1010.20
2019-05-10T00:41:51.024Z,1010.23
2019-05-10T00:42:51.011Z,1010.22
2019-05-10T00:43:21.087Z,1010.22
2019-05-10T00:43:51.012Z,1010.22
2019-05-10T00:44:21.072Z,1010.22
2019-05-10T00:44:52.172Z,1010.22
2019-05-10T00:45:55.120Z,1010.22
2019-05-10T00:46:21.068Z,1010.23
2019-05-10T00:46:51.018Z,1010.20
2019-05-10T00:47:51.032Z,1010.22
2019-05-10T00:48:21.085Z,1010.22
2019-05-10T00:48:51.020Z,1010.24
2019-05-10T00:49:21.074Z,1010.25
2019-05-10T00:49:54.230Z,1010.27
2019-05-10T00:50:51.011Z,1010.27
2019-05-10T00:51:21.070Z,1010.27
2019-05-10T00:51:51.014Z,1010.22
2019-05-10T00:52:51.066Z,1010.28
2019-05-10T00:53:21.072Z,1010.27
2019-05-10T00:53:51.014Z,1010.30
2019-05-10T00:54:21.084Z,1010.29
2019-05-10T00:55:22.181Z,1010.34
2019-05-10T00:55:51.017Z,1010.35
2019-05-10T00:56:25.087Z,1010.33
2019-05-10T00:56:51.013Z,1010.37
2019-05-10T00:57:51.041Z,1010.39
2019-05-10T00:58:21.073Z,1010.38
2019-05-10T00:58:51.012Z,1010.37
2019-05-10T00:59:21.073Z,1010.38
2019-05-10T01:00:24.298Z,1010.34
2019-05-10T01:00:51.011Z,1010.36
2019-05-10T01:01:21.082Z,1010.35
2019-05-10T01:01:51.023Z,1010.30
2019-05-10T01:02:51.022Z,1010.35
2019-05-10T01:03:21.080Z,1010.34
2019-05-10T01:03:51.019Z,1010.35
2019-05-10T01:04:21.082Z,1010.34
2019-05-10T01:05:21.073Z,1010.34
2019-05-10T01:05:52.114Z,1010.32
2019-05-10T01:06:21.087Z,1010.30
2019-05-10T01:06:56.436Z,1010.30
2019-05-10T01:07:51.016Z,1010.32
2019-05-10T01:08:21.100Z,1010.27
2019-05-10T01:08:51.023Z,1010.25
2019-05-10T01:09:21.081Z,1010.29
2019-05-10T01:10:21.086Z,1010.25
2019-05-10T01:10:54.172Z,1010.30
2019-05-10T01:11:21.083Z,1010.33
2019-05-10T01:11:51.049Z,1010.32
2019-05-10T01:12:51.022Z,1010.33
2019-05-10T01:13:21.080Z,1010.35
2019-05-10T01:13:51.019Z,1010.38
2019-05-10T01:14:21.085Z,1010.39
2019-05-10T01:15:21.072Z,1010.39
2019-05-10T01:15:51.022Z,1010.36
2019-05-10T01:16:22.119Z,1010.36
2019-05-10T01:16:51.017Z,1010.34
2019-05-10T01:17:24.124Z,1010.37
2019-05-10T01:18:21.076Z,1010.35
2019-05-10T01:18:51.038Z,1010.33
2019-05-10T01:19:21.081Z,1010.32
2019-05-10T01:20:21.085Z,1010.31
2019-05-10T01:20:51.025Z,1010.31
2019-05-10T01:21:24.174Z,1010.30
2019-05-10T01:21:51.031Z,1010.30
2019-05-10T01:22:51.017Z,1010.33
2019-05-10T01:23:21.081Z,1010.29
2019-05-10T01:23:51.025Z,1010.29
2019-05-10T01:24:21.087Z,1010.32
2019-05-10T01:25:34.337Z,1010.34
2019-05-10T01:25:51.026Z,1010.34
2019-05-10T01:26:21.083Z,1010.33
2019-05-10T01:26:52.238Z,1010.32
2019-05-10T01:27:53.085Z,1010.35
2019-05-10T01:28:21.077Z,1010.37
2019-05-10T01:28:51.023Z,1010.39
2019-05-10T01:29:21.081Z,1010.41
2019-05-10T01:30:21.081Z,1010.38
2019-05-10T01:30:51.081Z,1010.37
2019-05-10T01:31:21.081Z,1010.41
2019-05-10T01:31:54.263Z,1010.42
2019-05-10T01:32:51.024Z,1010.45
2019-05-10T01:33:21.181Z,1010.47
2019-05-10T01:33:51.022Z,1010.47
2019-05-10T01:34:21.092Z,1010.47
2019-05-10T01:35:21.187Z,1010.49
2019-05-10T01:35:51.035Z,1010.43
2019-05-10T01:36:21.084Z,1010.41
2019-05-10T01:36:51.031Z,1010.46
2019-05-10T01:37:22.144Z,1010.48
2019-05-10T01:38:25.099Z,1010.47
2019-05-10T01:38:51.016Z,1010.46
2019-05-10T01:39:21.258Z,1010.43
2019-05-10T01:40:21.107Z,1010.46
2019-05-10T01:40:51.026Z,1010.44
2019-05-10T01:41:21.095Z,1010.48
2019-05-10T01:41:51.027Z,1010.46
2019-05-10T01:42:24.212Z,1010.50
2019-05-10T01:43:21.089Z,1010.48
2019-05-10T01:43:51.021Z,1010.48
2019-05-10T01:44:21.082Z,1010.47
2019-05-10T01:45:21.083Z,1010.44
2019-05-10T01:45:51.027Z,1010.43
2019-05-10T01:46:21.086Z,1010.43
2019-05-10T01:46:51.120Z,1010.45
2019-05-10T01:47:52.287Z,1010.44
2019-05-10T01:48:21.087Z,1010.47
2019-05-10T01:48:55.061Z,1010.48
2019-05-10T01:49:21.084Z,1010.50
2019-05-10T01:50:21.094Z,1010.49
2019-05-10T01:50:51.053Z,1010.48
2019-05-10T01:51:21.092Z,1010.47
2019-05-10T01:51:51.129Z,1010.49
2019-05-10T01:52:54.229Z,1010.48
2019-05-10T01:53:21.087Z,1010.51
2019-05-10T01:53:51.100Z,1010.46
2019-05-10T01:54:21.092Z,1010.49
2019-05-10T01:55:21.092Z,1010.51
2019-05-10T01:55:54.040Z,1010.55
2019-05-10T01:56:21.085Z,1010.59
2019-05-10T01:56:51.032Z,1010.56
2019-05-10T01:57:51.027Z,1010.58
2019-05-10T01:58:22.213Z,1010.55
2019-05-10T01:58:51.023Z,1010.59
2019-05-10T01:59:25.268Z,1010.61
2019-05-10T02:00:21.085Z,1010.58
2019-05-10T02:00:51.025Z,1010.58
2019-05-10T02:01:21.089Z,1010.62
2019-05-10T02:01:51.031Z,1010.57
2019-05-10T02:02:51.030Z,1010.64
2019-05-10T02:03:24.174Z,1010.68
2019-05-10T02:03:51.029Z,1010.70
2019-05-10T02:04:21.085Z,1010.70
2019-05-10T02:05:21.097Z,1010.74
2019-05-10T02:05:51.032Z,1010.73
2019-05-10T02:06:21.094Z,1010.76
2019-05-10T02:06:51.035Z,1010.80
2019-05-10T02:07:51.049Z,1010.82
2019-05-10T02:08:21.094Z,1010.88
2019-05-10T02:08:52.718Z,1010.84
2019-05-10T02:09:21.094Z,1010.87
2019-05-10T02:09:55.061Z,1010.86
2019-05-10T02:10:21.094Z,1010.87
2019-05-10T02:10:51.032Z,1010.88
2019-05-10T02:11:21.102Z,1010.87
2019-05-10T02:11:51.029Z,1010.85
2019-05-10T02:12:21.101Z,1010.86
2019-05-10T02:12:51.041Z,1010.90
2019-05-10T02:13:21.091Z,1010.93
2019-05-10T02:13:54.171Z,1010.91
2019-05-10T02:14:21.087Z,1010.95
2019-05-10T02:15:21.093Z,1010.92
2019-05-10T02:15:51.028Z,1010.93
2019-05-10T02:16:21.096Z,1010.88
2019-05-10T02:16:51.142Z,1010.96
2019-05-10T02:17:51.040Z,1010.94
2019-05-10T02:18:21.124Z,1010.93
2019-05-10T02:18:51.102Z,1010.92
2019-05-10T02:19:22.322Z,1010.94
2019-05-10T02:20:24.099Z,1010.93
2019-05-10T02:20:51.039Z,1010.94
2019-05-10T02:21:21.094Z,1010.97
2019-05-10T02:21:51.040Z,1010.97
2019-05-10T02:22:21.099Z,1010.96
2019-05-10T02:22:51.048Z,1010.98
2019-05-10T02:23:21.095Z,1010.97
2019-05-10T02:23:51.037Z,1010.95
2019-05-10T02:24:24.142Z,1010.99
2019-05-10T02:25:21.092Z,1011.00
2019-05-10T02:26:07.108Z,1010.95
2019-05-10T02:26:21.098Z,1010.98
2019-05-10T02:26:51.034Z,1010.97
2019-05-10T02:27:51.034Z,1010.96
2019-05-10T02:28:21.098Z,1010.93
2019-05-10T02:28:51.042Z,1010.95
2019-05-10T02:29:21.105Z,1010.94
2019-05-10T02:29:52.202Z,1010.95
2019-05-10T02:30:55.074Z,1010.91
2019-05-10T02:31:23.101Z,1010.91
2019-05-10T02:31:51.036Z,1011.00
2019-05-10T02:32:21.095Z,1010.95
2019-05-10T02:32:51.034Z,1010.97
2019-05-10T02:33:21.110Z,1010.97
2019-05-10T02:33:51.037Z,1010.97
2019-05-10T02:34:21.091Z,1010.98
2019-05-10T02:34:54.143Z,1010.92
2019-05-10T02:35:51.043Z,1011.01
2019-05-10T02:36:21.137Z,1010.97
2019-05-10T02:36:51.050Z,1011.03
2019-05-10T02:37:21.114Z,1011.00
2019-05-10T02:37:51.037Z,1010.95
2019-05-10T02:38:21.100Z,1010.95
2019-05-10T02:38:51.044Z,1011.05
2019-05-10T02:39:21.100Z,1011.09
2019-05-10T02:39:51.193Z,1011.05
2019-05-10T02:40:22.119Z,1011.06
2019-05-10T02:40:51.035Z,1011.08
2019-05-10T02:41:24.106Z,1011.13
2019-05-10T02:41:51.077Z,1011.15
2019-05-10T02:42:21.099Z,1011.13
2019-05-10T02:42:51.041Z,1011.15
2019-05-10T02:43:21.119Z,1011.16
2019-05-10T02:43:51.039Z,1011.17
2019-05-10T02:44:21.111Z,1011.13
2019-05-10T02:44:51.044Z,1011.23
2019-05-10T02:45:24.189Z,1011.24
2019-05-10T02:45:51.040Z,1011.22
2019-05-10T02:46:21.104Z,1011.22
2019-05-10T02:46:51.051Z,1011.19
2019-05-10T02:47:21.099Z,1011.20
2019-05-10T02:47:51.050Z,1011.15
2019-05-10T02:48:21.105Z,1011.11
2019-05-10T02:48:51.051Z,1011.12
2019-05-10T02:49:51.047Z,1011.17
2019-05-10T02:50:21.184Z,1011.17
2019-05-10T02:50:52.271Z,1011.20
2019-05-10T02:51:21.105Z,1011.22
2019-05-10T02:51:55.078Z,1011.28
2019-05-10T02:52:21.110Z,1011.16
2019-05-10T02:52:51.049Z,1011.16
2019-05-10T02:53:21.111Z,1011.20
2019-05-10T02:53:53.562Z,1011.20
2019-05-10T02:54:51.044Z,1011.25
2019-05-10T02:55:21.099Z,1011.17
2019-05-10T02:55:54.213Z,1011.22
2019-05-10T02:56:31.070Z,1011.21
2019-05-10T02:56:51.041Z,1011.19
2019-05-10T02:57:21.154Z,1011.18
2019-05-10T02:57:51.054Z,1011.17
2019-05-10T02:58:21.113Z,1011.24
2019-05-10T02:58:51.061Z,1011.22
2019-05-10T02:59:21.100Z,1011.23
2019-05-10T03:00:21.113Z,1011.21
2019-05-10T03:00:51.041Z,1011.22
2019-05-10T03:01:22.195Z,1011.16
2019-05-10T03:01:51.038Z,1011.23
2019-05-10T03:02:25.115Z,1011.26
2019-05-10T03:03:21.101Z,1011.25
2019-05-10T03:03:51.059Z,1011.28
2019-05-10T03:04:21.107Z,1011.27
2019-05-10T03:05:21.098Z,1011.28
2019-05-10T03:05:51.048Z,1011.31
2019-05-10T03:06:24.220Z,1011.32
2019-05-10T03:06:51.073Z,1011.32
2019-05-10T03:07:51.063Z,1011.29
2019-05-10T03:08:21.118Z,1011.32
2019-05-10T03:08:51.147Z,1011.33
2019-05-10T03:09:21.103Z,1011.33
2019-05-10T03:10:21.104Z,1011.37
2019-05-10T03:10:51.048Z,1011.42
2019-05-10T03:11:21.113Z,1011.34
2019-05-10T03:11:52.149Z,1011.37
2019-05-10T03:12:55.077Z,1011.39
2019-05-10T03:13:21.104Z,1011.42
2019-05-10T03:13:51.051Z,1011.36
2019-05-10T03:14:21.118Z,1011.36
2019-05-10T03:14:51.044Z,1011.34
2019-05-10T03:15:21.121Z,1011.35
2019-05-10T03:15:51.044Z,1011.39
2019-05-10T03:16:21.110Z,1011.38
2019-05-10T03:16:54.139Z,1011.38
2019-05-10T03:17:51.050Z,1011.36
2019-05-10T03:18:21.108Z,1011.38
2019-05-10T03:18:51.046Z,1011.37
2019-05-10T03:19:21.129Z,1011.38
2019-05-10T03:20:21.105Z,1011.37
2019-05-10T03:20:51.077Z,1011.41
2019-05-10T03:21:21.111Z,1011.41
2019-05-10T03:21:51.052Z,1011.44
2019-05-10T03:22:22.178Z,1011.40
2019-05-10T03:23:25.136Z,1011.43
2019-05-10T03:23:51.054Z,1011.46
2019-05-10T03:24:21.110Z,1011.46
2019-05-10T03:25:21.109Z,1011.42
2019-05-10T03:25:51.051Z,1011.44
2019-05-10T03:26:21.110Z,1011.44
2019-05-10T03:26:53.076Z,1011.44
2019-05-10T03:27:24.230Z,1011.41
2019-05-10T03:28:21.114Z,1011.44
2019-05-10T03:28:51.058Z,1011.45
2019-05-10T03:29:21.113Z,1011.47
2019-05-10T03:30:21.135Z,1011.44
2019-05-10T03:30:51.048Z,1011.47
2019-05-10T03:31:21.117Z,1011.47
2019-05-10T03:31:51.050Z,1011.49
2019-05-10T03:32:52.212Z,1011.48
2019-05-10T03:33:21.111Z,1011.43
2019-05-10T03:33:59.080Z,1011.44
2019-05-10T03:34:21.121Z,1011.46
2019-05-10T03:35:21.119Z,1011.49
2019-05-10T03:35:51.113Z,1011.49
2019-05-10T03:36:21.114Z,1011.47
2019-05-10T03:36:51.054Z,1011.49
2019-05-10T03:37:54.202Z,1011.48
2019-05-10T03:38:21.111Z,1011.50
2019-05-10T03:38:51.054Z,1011.47
2019-05-10T03:39:21.119Z,1011.51
2019-05-10T03:40:21.116Z,1011.50
2019-05-10T03:40:51.056Z,1011.50
2019-05-10T03:41:21.116Z,1011.51
2019-05-10T03:41:51.061Z,1011.52
2019-05-10T03:42:51.054Z,1011.51
2019-05-10T03:43:22.256Z,1011.50
2019-05-10T03:43:51.057Z,1011.49
2019-05-10T03:44:25.137Z,1011.52
2019-05-10T03:45:21.118Z,1011.54
2019-05-10T03:45:51.063Z,1011.53
2019-05-10T03:46:21.119Z,1011.55
2019-05-10T03:46:51.052Z,1011.52
2019-05-10T03:47:51.045Z,1011.55
2019-05-10T03:48:24.263Z,1011.57
2019-05-10T03:48:51.059Z,1011.57
2019-05-10T03:49:21.116Z,1011.56
2019-05-10T03:50:21.119Z,1011.58
2019-05-10T03:50:51.060Z,1011.57
2019-05-10T03:51:21.124Z,1011.59
2019-05-10T03:51:51.057Z,1011.56
2019-05-10T03:52:53.061Z,1011.62
2019-05-10T03:53:21.122Z,1011.61
2019-05-10T03:53:52.324Z,1011.62
2019-05-10T03:54:21.130Z,1011.61
2019-05-10T03:54:55.073Z,1011.63
2019-05-10T03:55:51.057Z,1011.62
2019-05-10T03:56:21.119Z,1011.63
2019-05-10T03:57:11.598Z,1011.63
2019-05-10T03:57:51.059Z,1011.60
2019-05-10T03:58:21.270Z,1011.62
2019-05-10T03:58:54.203Z,1011.60
2019-05-10T03:59:21.127Z,1011.62
2019-05-10T04:00:21.116Z,1011.64
2019-05-10T04:00:51.056Z,1011.59
2019-05-10T04:01:21.121Z,1011.58
2019-05-10T04:01:51.063Z,1011.57
2019-05-10T04:02:51.053Z,1011.61
2019-05-10T04:03:21.120Z,1011.55
2019-05-10T04:03:51.064Z,1011.59
2019-05-10T04:04:22.159Z,1011.59
2019-05-10T04:05:25.141Z,1011.58
2019-05-10T04:05:51.070Z,1011.57
2019-05-10T04:06:21.128Z,1011.60
2019-05-10T04:06:51.104Z,1011.57
2019-05-10T04:07:23.355Z,1011.58
2019-05-10T04:08:21.119Z,1011.55
2019-05-10T04:08:51.058Z,1011.55
2019-05-10T04:09:24.170Z,1011.53
2019-05-10T04:10:26.084Z,1011.54
2019-05-10T04:10:51.060Z,1011.56
2019-05-10T04:11:21.120Z,1011.55
2019-05-10T04:11:51.066Z,1011.54
2019-05-10T04:12:51.073Z,1011.54
2019-05-10T04:13:21.144Z,1011.55
2019-05-10T04:13:51.061Z,1011.54
2019-05-10T04:14:21.125Z,1011.56
2019-05-10T04:14:52.211Z,1011.55
2019-05-10T04:15:55.077Z,1011.52
2019-05-10T04:16:21.123Z,1011.54
2019-05-10T04:16:51.055Z,1011.54
2019-05-10T04:17:52.080Z,1011.59
2019-05-10T04:18:21.125Z,1011.58
2019-05-10T04:18:51.059Z,1011.56
2019-05-10T04:19:21.136Z,1011.60
2019-05-10T04:19:54.278Z,1011.57
2019-05-10T04:20:51.057Z,1011.60
2019-05-10T04:21:21.137Z,1011.61
2019-05-10T04:21:51.104Z,1011.59
2019-05-10T04:22:51.065Z,1011.62
2019-05-10T04:23:21.117Z,1011.59
2019-05-10T04:23:51.066Z,1011.62
2019-05-10T04:24:21.122Z,1011.59
2019-05-10T04:25:22.141Z,1011.63
2019-05-10T04:25:51.064Z,1011.60
2019-05-10T04:26:24.110Z,1011.59
2019-05-10T04:26:51.067Z,1011.64
2019-05-10T04:27:31.918Z,1011.64
2019-05-10T04:28:21.133Z,1011.64
2019-05-10T04:28:51.067Z,1011.66
2019-05-10T04:29:21.126Z,1011.66
2019-05-10T04:30:24.192Z,1011.65
2019-05-10T04:30:51.063Z,1011.66
2019-05-10T04:31:21.135Z,1011.69
2019-05-10T04:31:51.063Z,1011.66
2019-05-10T04:32:51.067Z,1011.67
2019-05-10T04:33:21.135Z,1011.68
2019-05-10T04:33:51.060Z,1011.71
2019-05-10T04:34:21.137Z,1011.71
2019-05-10T04:35:21.123Z,1011.70
2019-05-10T04:35:52.259Z,1011.71
2019-05-10T04:36:21.135Z,1011.69
2019-05-10T04:36:55.089Z,1011.70
2019-05-10T04:37:51.066Z,1011.69
2019-05-10T04:38:21.201Z,1011.68
2019-05-10T04:38:51.064Z,1011.68
2019-05-10T04:39:21.137Z,1011.71
2019-05-10T04:40:21.199Z,1011.69
2019-05-10T04:40:54.192Z,1011.73
2019-05-10T04:41:21.128Z,1011.76
2019-05-10T04:41:51.077Z,1011.74
2019-05-10T04:42:51.070Z,1011.73
2019-05-10T04:43:21.138Z,1011.73
2019-05-10T04:43:51.077Z,1011.75
2019-05-10T04:44:21.132Z,1011.76
2019-05-10T04:44:54.327Z,1011.75
2019-05-10T04:45:51.067Z,1011.78
2019-05-10T04:46:22.289Z,1011.77
2019-05-10T04:46:51.074Z,1011.77
2019-05-10T04:47:25.147Z,1011.79
2019-05-10T04:48:21.132Z,1011.78
2019-05-10T04:48:51.072Z,1011.79
2019-05-10T04:49:21.123Z,1011.78
2019-05-10T04:50:21.130Z,1011.80
2019-05-10T04:50:51.081Z,1011.79
2019-05-10T04:51:24.217Z,1011.82
2019-05-10T04:51:51.066Z,1011.83
2019-05-10T04:52:51.083Z,1011.83
2019-05-10T04:53:21.141Z,1011.82
2019-05-10T04:53:51.073Z,1011.83
2019-05-10T04:54:21.148Z,1011.86
2019-05-10T04:55:21.132Z,1011.88
2019-05-10T04:55:51.077Z,1011.88
2019-05-10T04:56:21.140Z,1011.87
2019-05-10T04:56:52.335Z,1011.86
2019-05-10T04:57:56.096Z,1011.90
2019-05-10T04:58:21.142Z,1011.92
2019-05-10T04:58:51.212Z,1011.93
2019-05-10T04:59:21.156Z,1011.93
2019-05-10T05:00:21.138Z,1011.94
2019-05-10T05:00:51.080Z,1011.95
2019-05-10T05:01:21.305Z,1011.96
2019-05-10T05:01:54.218Z,1011.96
2019-05-10T05:02:23.143Z,1011.96
2019-05-10T05:03:21.154Z,1011.97
2019-05-10T05:03:51.168Z,1011.99
2019-05-10T05:04:21.131Z,1011.97
2019-05-10T05:05:21.130Z,1011.98
2019-05-10T05:05:51.076Z,1011.98
2019-05-10T05:06:21.141Z,1011.98
2019-05-10T05:06:51.069Z,1012.00
2019-05-10T05:07:22.180Z,1012.01
2019-05-10T05:08:24.129Z,1012.02
2019-05-10T05:08:51.074Z,1012.02
2019-05-10T05:09:21.142Z,1012.09
2019-05-10T05:10:21.143Z,1012.07
2019-05-10T05:10:51.074Z,1012.05
2019-05-10T05:11:21.154Z,1012.04
2019-05-10T05:11:51.077Z,1012.07
2019-05-10T05:12:24.146Z,1012.06
2019-05-10T05:13:21.152Z,1012.05
2019-05-10T05:13:51.082Z,1012.07
2019-05-10T05:14:21.132Z,1012.08
2019-05-10T05:15:21.140Z,1012.11
2019-05-10T05:15:51.069Z,1012.08
2019-05-10T05:16:21.142Z,1012.13
2019-05-10T05:16:51.069Z,1012.14
2019-05-10T05:17:52.329Z,1012.18
2019-05-10T05:18:21.245Z,1012.15
2019-05-10T05:18:54.082Z,1012.19
2019-05-10T05:19:21.143Z,1012.17
2019-05-10T05:20:21.134Z,1012.20
2019-05-10T05:20:51.077Z,1012.20
2019-05-10T05:21:21.154Z,1012.21
2019-05-10T05:21:51.111Z,1012.18
2019-05-10T05:22:54.143Z,1012.20
2019-05-10T05:23:21.144Z,1012.21
2019-05-10T05:23:51.080Z,1012.23
2019-05-10T05:24:24.519Z,1012.25
2019-05-10T05:25:23.138Z,1012.27
2019-05-10T05:25:51.092Z,1012.27
2019-05-10T05:26:21.136Z,1012.25
2019-05-10T05:26:51.078Z,1012.23
2019-05-10T05:28:07.049Z,1012.24
2019-05-10T05:28:25.202Z,1012.26
2019-05-10T05:28:51.080Z,1012.25
2019-05-10T05:29:25.159Z,1012.27
2019-05-10T05:30:21.135Z,1012.30
2019-05-10T05:30:51.092Z,1012.28
2019-05-10T05:31:21.136Z,1012.28
2019-05-10T05:32:00.886Z,1012.26
2019-05-10T05:32:51.086Z,1012.28
2019-05-10T05:33:24.256Z,1012.28
2019-05-10T05:33:51.076Z,1012.29
2019-05-10T05:34:21.141Z,1012.31
2019-05-10T05:35:21.144Z,1012.32
2019-05-10T05:35:51.079Z,1012.34
2019-05-10T05:36:21.140Z,1012.34
2019-05-10T05:36:51.083Z,1012.33
2019-05-10T05:37:51.076Z,1012.36
2019-05-10T05:38:21.140Z,1012.40
2019-05-10T05:38:52.325Z,1012.41
2019-05-10T05:39:21.149Z,1012.44
2019-05-10T05:39:54.084Z,1012.42
2019-05-10T05:40:51.087Z,1012.44
2019-05-10T05:41:21.147Z,1012.41
2019-05-10T05:41:59.099Z,1012.44
2019-05-10T05:42:27.840Z,1012.42
2019-05-10T05:43:21.147Z,1012.39
2019-05-10T05:43:54.148Z,1012.43
2019-05-10T05:44:25.974Z,1012.42
2019-05-10T05:45:21.141Z,1012.41
2019-05-10T05:45:51.086Z,1012.45
2019-05-10T05:46:21.139Z,1012.41
2019-05-10T05:46:51.079Z,1012.43
2019-05-10T05:47:51.141Z,1012.39
2019-05-10T05:48:39.421Z,1012.37
2019-05-10T05:48:53.120Z,1012.38
2019-05-10T05:49:22.207Z,1012.35
2019-05-10T05:50:25.167Z,1012.37
2019-05-10T05:50:51.082Z,1012.37
2019-05-10T05:51:21.141Z,1012.36
2019-05-10T05:51:51.083Z,1012.40
2019-05-10T05:52:51.083Z,1012.40
2019-05-10T05:53:23.197Z,1012.40
2019-05-10T05:53:51.127Z,1012.39
2019-05-10T05:54:24.287Z,1012.40
2019-05-10T05:54:57.352Z,1012.40
2019-05-10T05:55:30.440Z,1012.43
2019-05-10T05:56:21.140Z,1012.40
2019-05-10T05:56:55.106Z,1012.40
2019-05-10T05:57:27.444Z,1012.42
2019-05-10T05:58:27.134Z,1012.41
2019-05-10T05:58:51.099Z,1012.41
2019-05-10T05:59:26.411Z,1012.42
2019-05-10T06:00:21.145Z,1012.42
2019-05-10T06:00:54.273Z,1012.44
2019-05-10T06:01:29.470Z,1012.45
2019-05-10T06:01:51.089Z,1012.44
2019-05-10T06:02:51.092Z,1012.47
2019-05-10T06:03:29.144Z,1012.47
2019-05-10T06:03:51.089Z,1012.47
2019-05-10T06:04:21.161Z,1012.50
2019-05-10T06:04:54.310Z,1012.50
2019-05-10T06:05:33.761Z,1012.47
2019-05-10T06:06:24.163Z,1012.47
2019-05-10T06:06:58.986Z,1012.49
2019-05-10T06:07:53.097Z,1012.49
2019-05-10T06:08:29.497Z,1012.50
2019-05-10T06:08:59.534Z,1012.50
2019-05-10T06:09:21.147Z,1012.52
2019-05-10T06:10:21.147Z,1012.55
2019-05-10T06:10:59.558Z,1012.57
2019-05-10T06:11:24.119Z,1012.54
2019-05-10T06:11:51.093Z,1012.50
2019-05-10T06:12:54.098Z,1012.53
2019-05-10T06:13:30.064Z,1012.59
2019-05-10T06:13:51.093Z,1012.58
2019-05-10T06:14:21.152Z,1012.54
2019-05-10T06:14:53.095Z,1012.60
2019-05-10T06:15:28.896Z,1012.57
2019-05-10T06:16:27.114Z,1012.56
2019-05-10T06:16:54.109Z,1012.57
2019-05-10T06:17:29.329Z,1012.58
2019-05-10T06:17:57.527Z,1012.57
2019-05-10T06:18:51.094Z,1012.57
2019-05-10T06:19:29.303Z,1012.58
2019-05-10T06:20:21.151Z,1012.59
2019-05-10T06:20:51.087Z,1012.59
2019-05-10T06:21:26.723Z,1012.59
2019-05-10T06:22:04.316Z,1012.58
2019-05-10T06:23:06.186Z,1012.58
2019-05-10T06:23:21.162Z,1012.58
2019-05-10T06:23:51.085Z,1012.60
2019-05-10T06:24:21.213Z,1012.60
2019-05-10T06:24:54.106Z,1012.63
2019-05-10T06:25:39.115Z,1012.65
2019-05-10T06:25:54.176Z,1012.63
2019-05-10T06:26:28.505Z,1012.64
2019-05-10T06:27:51.099Z,1012.64
2019-05-10T06:28:39.731Z,1012.65
2019-05-10T06:28:59.384Z,1012.67
2019-05-10T06:29:21.151Z,1012.68
2019-05-10T06:30:21.149Z,1012.72
2019-05-10T06:30:51.094Z,1012.70
2019-05-10T06:31:21.198Z,1012.68
2019-05-10T06:31:51.096Z,1012.68
2019-05-10T06:32:24.122Z,1012.68
2019-05-10T06:32:59.954Z,1012.68
2019-05-10T06:33:51.092Z,1012.70
2019-05-10T06:34:21.155Z,1012.70
2019-05-10T06:35:22.171Z,1012.73
2019-05-10T06:35:51.090Z,1012.71
2019-05-10T06:36:24.153Z,1012.72
2019-05-10T06:36:51.109Z,1012.72
2019-05-10T06:37:51.088Z,1012.73
2019-05-10T06:38:21.160Z,1012.70
2019-05-10T06:38:51.185Z,1012.67
2019-05-10T06:39:21.157Z,1012.70
2019-05-10T06:40:34.657Z,1012.71
2019-05-10T06:40:51.093Z,1012.71
2019-05-10T06:41:21.159Z,1012.72
2019-05-10T06:41:58.328Z,1012.71
2019-05-10T06:42:54.182Z,1012.73
2019-05-10T06:43:21.155Z,1012.72
2019-05-10T06:43:56.110Z,1012.73
2019-05-10T06:44:31.079Z,1012.72
2019-05-10T06:45:21.153Z,1012.65
2019-05-10T06:45:54.106Z,1012.67
2019-05-10T06:46:29.272Z,1012.71
2019-05-10T06:46:54.161Z,1012.70
2019-05-10T06:47:23.184Z,1012.69
2019-05-10T06:47:56.097Z,1012.71
2019-05-10T06:48:28.587Z,1012.71
2019-05-10T06:49:21.160Z,1012.71
2019-05-10T06:49:53.101Z,1012.72
2019-05-10T06:50:29.771Z,1012.73
2019-05-10T06:51:21.163Z,1012.75
2019-05-10T06:51:53.139Z,1012.74
2019-05-10T06:52:27.633Z,1012.76
2019-05-10T06:52:53.116Z,1012.76
2019-05-10T06:53:25.200Z,1012.75
2019-05-10T06:53:54.117Z,1012.75
2019-05-10T06:55:21.166Z,1012.77
2019-05-10T06:55:51.102Z,1012.79
2019-05-10T06:56:21.160Z,1012.82
2019-05-10T06:56:51.099Z,1012.82
2019-05-10T06:57:24.230Z,1012.83
2019-05-10T06:58:00.435Z,1012.81
2019-05-10T06:58:51.100Z,1012.79
2019-05-10T06:59:28.190Z,1012.82
2019-05-10T07:00:21.161Z,1012.88
2019-05-10T07:00:51.105Z,1012.88
2019-05-10T07:01:21.175Z,1012.83
2019-05-10T07:01:53.105Z,1012.86
2019-05-10T07:02:31.825Z,1012.87
2019-05-10T07:03:21.161Z,1012.87
2019-05-10T07:03:54.290Z,1012.87
2019-05-10T07:04:21.159Z,1012.88
2019-05-10T07:04:56.119Z,1012.87
2019-05-10T07:05:51.167Z,1012.96
2019-05-10T07:06:21.174Z,1012.94
2019-05-10T07:06:51.104Z,1012.89
2019-05-10T07:07:43.021Z,1012.93
2019-05-10T07:07:59.429Z,1012.96
2019-05-10T07:08:22.164Z,1012.93
2019-05-10T07:08:59.503Z,1012.92
2019-05-10T07:10:10.256Z,1012.90
2019-05-10T07:10:26.193Z,1012.93
2019-05-10T07:11:21.158Z,1012.94
2019-05-10T07:11:51.112Z,1012.94
2019-05-10T07:12:51.171Z,1012.92
2019-05-10T07:13:21.157Z,1012.94
2019-05-10T07:13:54.114Z,1012.95
2019-05-10T07:14:28.244Z,1012.95
2019-05-10T07:15:21.178Z,1012.96
2019-05-10T07:15:51.106Z,1012.95
2019-05-10T07:16:28.197Z,1012.97
2019-05-10T07:16:51.105Z,1012.92
2019-05-10T07:17:51.898Z,1012.98
2019-05-10T07:18:25.275Z,1013.00
2019-05-10T07:19:00.440Z,1013.01
2019-05-10T07:19:21.165Z,1013.03
2019-05-10T07:19:56.124Z,1013.02
2019-05-10T07:20:29.344Z,1013.02
2019-05-10T07:21:21.173Z,1013.05
2019-05-10T07:21:53.113Z,1013.06
2019-05-10T07:22:26.740Z,1013.08
2019-05-10T07:23:21.167Z,1013.07
2019-05-10T07:23:51.101Z,1013.10
2019-05-10T07:24:27.066Z,1013.08
2019-05-10T07:25:04.045Z,1013.11
2019-05-10T07:25:51.105Z,1013.11